Lynchburg, Ohio
Current Conditions -  °F | °C
As of 5:54 PM on Sunday 21 Dec 2014 (Local Time) from KILN Reporting Station
Clear Clear  
Wind Chill: 24°   Ceiling: Unl
Heat Index: 30°   Visibility: 9mi
Dew Point: 25°   Wind: 6mph
Humidity: 82%   Direction: 100°E
Pressure: 30.18"   Gusts: NA
Location:  39.24°N, 83.79°W
Report Text: KILN 212254Z AUTO 10005KT 9SM CLR M01/M04 A3018 RMK AO2 SLP251 T10111039
Loading
Personal Weather Stations






























Interactive Weather Map New forecast layout! Learn more

10-Day Weather Forecast

Advertisements
Track Severe Weather on mobile